sensor_id;sensor_type;location;lat;lon;timestamp;P1;durP1;ratioP1;P2;durP2;ratioP2
25846;SDS011;13676;50.168;8.568;2023-02-28T00:00:08;4.65;;;2.67;;
25846;SDS011;13676;50.168;8.568;2023-02-28T00:02:39;4.57;;;2.85;;
25846;SDS011;13676;50.168;8.568;2023-02-28T00:05:05;6.38;;;3.00;;
25846;SDS011;13676;50.168;8.568;2023-02-28T00:07:32;5.53;;;3.15;;
25846;SDS011;13676;50.168;8.568;2023-02-28T00:09:57;4.55;;;3.10;;
25846;SDS011;13676;50.168;8.568;2023-02-28T00:12:23;7.32;;;3.58;;
25846;SDS011;13676;50.168;8.568;2023-02-28T00:14:49;3.08;;;2.50;;
25846;SDS011;13676;50.168;8.568;2023-02-28T00:17:14;4.07;;;2.65;;
25846;SDS011;13676;50.168;8.568;2023-02-28T00:19:39;4.68;;;3.20;;
25846;SDS011;13676;50.168;8.568;2023-02-28T00:22:05;5.80;;;3.05;;
25846;SDS011;13676;50.168;8.568;2023-02-28T00:24:30;3.78;;;2.85;;
25846;SDS011;13676;50.168;8.568;2023-02-28T00:26:56;5.57;;;3.78;;
25846;SDS011;13676;50.168;8.568;2023-02-28T00:29:21;7.30;;;3.85;;
25846;SDS011;13676;50.168;8.568;2023-02-28T00:31:46;9.18;;;4.35;;
25846;SDS011;13676;50.168;8.568;2023-02-28T00:34:12;8.77;;;4.05;;
25846;SDS011;13676;50.168;8.568;2023-02-28T00:36:37;5.57;;;3.65;;
25846;SDS011;13676;50.168;8.568;2023-02-28T00:39:03;9.50;;;4.50;;
25846;SDS011;13676;50.168;8.568;2023-02-28T00:41:28;6.82;;;4.10;;
25846;SDS011;13676;50.168;8.568;2023-02-28T00:43:55;7.93;;;4.32;;
25846;SDS011;13676;50.168;8.568;2023-02-28T00:46:20;7.55;;;5.10;;
25846;SDS011;13676;50.168;8.568;2023-02-28T00:48:46;8.85;;;4.65;;
25846;SDS011;13676;50.168;8.568;2023-02-28T00:51:12;13.23;;;4.72;;
25846;SDS011;13676;50.168;8.568;2023-02-28T00:53:37;7.28;;;4.55;;
25846;SDS011;13676;50.168;8.568;2023-02-28T00:56:03;6.30;;;4.45;;
25846;SDS011;13676;50.168;8.568;2023-02-28T00:58:28;8.48;;;4.25;;
25846;SDS011;13676;50.168;8.568;2023-02-28T01:00:54;8.77;;;4.47;;
25846;SDS011;13676;50.168;8.568;2023-02-28T01:03:19;8.43;;;4.97;;
25846;SDS011;13676;50.168;8.568;2023-02-28T01:05:45;6.55;;;4.32;;
25846;SDS011;13676;50.168;8.568;2023-02-28T01:08:11;5.80;;;3.67;;
25846;SDS011;13676;50.168;8.568;2023-02-28T01:10:38;7.40;;;4.80;;
25846;SDS011;13676;50.168;8.568;2023-02-28T01:13:04;6.15;;;4.32;;
25846;SDS011;13676;50.168;8.568;2023-02-28T01:15:29;8.10;;;4.30;;
25846;SDS011;13676;50.168;8.568;2023-02-28T01:17:56;6.75;;;4.57;;
25846;SDS011;13676;50.168;8.568;2023-02-28T01:20:22;6.97;;;4.18;;
25846;SDS011;13676;50.168;8.568;2023-02-28T01:22:47;8.48;;;4.53;;
25846;SDS011;13676;50.168;8.568;2023-02-28T01:25:12;8.07;;;4.45;;
25846;SDS011;13676;50.168;8.568;2023-02-28T01:27:38;8.65;;;5.10;;
25846;SDS011;13676;50.168;8.568;2023-02-28T01:30:05;6.38;;;4.38;;
25846;SDS011;13676;50.168;8.568;2023-02-28T01:32:31;7.47;;;5.07;;
25846;SDS011;13676;50.168;8.568;2023-02-28T01:34:57;7.78;;;4.45;;
25846;SDS011;13676;50.168;8.568;2023-02-28T01:37:22;8.25;;;4.80;;
25846;SDS011;13676;50.168;8.568;2023-02-28T01:39:47;8.57;;;4.68;;
25846;SDS011;13676;50.168;8.568;2023-02-28T01:42:13;6.90;;;4.53;;
25846;SDS011;13676;50.168;8.568;2023-02-28T01:45:01;8.32;;;4.50;;
25846;SDS011;13676;50.168;8.568;2023-02-28T01:47:48;8.18;;;4.53;;
25846;SDS011;13676;50.168;8.568;2023-02-28T01:50:19;7.35;;;4.32;;
25846;SDS011;13676;50.168;8.568;2023-02-28T01:52:47;8.18;;;4.82;;
25846;SDS011;13676;50.168;8.568;2023-02-28T01:55:13;5.47;;;3.97;;
25846;SDS011;13676;50.168;8.568;2023-02-28T01:57:42;9.82;;;4.15;;
25846;SDS011;13676;50.168;8.568;2023-02-28T02:00:12;6.07;;;3.75;;
25846;SDS011;13676;50.168;8.568;2023-02-28T02:02:43;10.00;;;4.28;;
25846;SDS011;13676;50.168;8.568;2023-02-28T02:05:12;6.57;;;3.53;;
25846;SDS011;13676;50.168;8.568;2023-02-28T02:07:40;6.80;;;4.05;;
25846;SDS011;13676;50.168;8.568;2023-02-28T02:10:13;7.28;;;3.67;;
25846;SDS011;13676;50.168;8.568;2023-02-28T02:15:44;5.90;;;4.00;;
25846;SDS011;13676;50.168;8.568;2023-02-28T02:18:40;10.38;;;4.07;;
25846;SDS011;13676;50.168;8.568;2023-02-28T02:21:29;7.13;;;4.32;;
25846;SDS011;13676;50.168;8.568;2023-02-28T02:36:04;7.43;;;4.05;;
25846;SDS011;13676;50.168;8.568;2023-02-28T02:38:58;7.63;;;4.10;;
25846;SDS011;13676;50.168;8.568;2023-02-28T02:44:03;8.48;;;4.20;;
25846;SDS011;13676;50.168;8.568;2023-02-28T02:46:36;5.90;;;3.47;;
25846;SDS011;13676;50.168;8.568;2023-02-28T02:49:06;6.85;;;3.88;;
25846;SDS011;13676;50.168;8.568;2023-02-28T02:51:34;5.72;;;3.72;;
25846;SDS011;13676;50.168;8.568;2023-02-28T02:54:08;5.05;;;3.80;;
25846;SDS011;13676;50.168;8.568;2023-02-28T02:56:40;9.65;;;4.10;;
25846;SDS011;13676;50.168;8.568;2023-02-28T02:59:08;7.15;;;3.90;;
25846;SDS011;13676;50.168;8.568;2023-02-28T03:01:34;6.97;;;4.38;;
25846;SDS011;13676;50.168;8.568;2023-02-28T03:04:02;5.47;;;4.05;;
25846;SDS011;13676;50.168;8.568;2023-02-28T03:06:29;7.68;;;4.10;;
25846;SDS011;13676;50.168;8.568;2023-02-28T03:08:55;5.28;;;3.85;;
25846;SDS011;13676;50.168;8.568;2023-02-28T03:11:20;6.15;;;4.10;;
25846;SDS011;13676;50.168;8.568;2023-02-28T03:13:52;5.20;;;3.70;;
25846;SDS011;13676;50.168;8.568;2023-02-28T03:24:32;11.82;;;4.60;;
25846;SDS011;13676;50.168;8.568;2023-02-28T03:26:58;5.05;;;3.70;;
25846;SDS011;13676;50.168;8.568;2023-02-28T03:29:36;10.45;;;4.63;;
25846;SDS011;13676;50.168;8.568;2023-02-28T03:32:18;6.38;;;4.70;;
25846;SDS011;13676;50.168;8.568;2023-02-28T03:34:50;7.68;;;4.70;;
25846;SDS011;13676;50.168;8.568;2023-02-28T03:37:31;7.47;;;4.65;;
25846;SDS011;13676;50.168;8.568;2023-02-28T03:40:08;6.30;;;4.43;;
25846;SDS011;13676;50.168;8.568;2023-02-28T03:42:43;8.73;;;4.60;;
25846;SDS011;13676;50.168;8.568;2023-02-28T03:45:16;9.80;;;4.57;;
25846;SDS011;13676;50.168;8.568;2023-02-28T03:47:58;7.43;;;4.40;;
25846;SDS011;13676;50.168;8.568;2023-02-28T03:50:37;4.80;;;4.18;;
25846;SDS011;13676;50.168;8.568;2023-02-28T03:53:07;6.68;;;4.80;;
25846;SDS011;13676;50.168;8.568;2023-02-28T03:55:45;7.40;;;4.35;;
25846;SDS011;13676;50.168;8.568;2023-02-28T04:03:17;9.88;;;4.75;;
25846;SDS011;13676;50.168;8.568;2023-02-28T04:05:53;7.10;;;4.25;;
25846;SDS011;13676;50.168;8.568;2023-02-28T04:08:19;5.60;;;4.10;;
25846;SDS011;13676;50.168;8.568;2023-02-28T04:10:47;8.68;;;4.22;;
25846;SDS011;13676;50.168;8.568;2023-02-28T04:13:36;8.98;;;4.28;;
25846;SDS011;13676;50.168;8.568;2023-02-28T04:16:01;6.32;;;4.00;;
25846;SDS011;13676;50.168;8.568;2023-02-28T04:18:36;8.90;;;4.20;;
25846;SDS011;13676;50.168;8.568;2023-02-28T04:21:02;6.10;;;4.00;;
25846;SDS011;13676;50.168;8.568;2023-02-28T04:23:27;7.95;;;3.85;;
25846;SDS011;13676;50.168;8.568;2023-02-28T04:25:54;6.10;;;3.83;;
25846;SDS011;13676;50.168;8.568;2023-02-28T04:28:20;6.25;;;3.90;;
25846;SDS011;13676;50.168;8.568;2023-02-28T04:30:45;6.60;;;3.85;;
25846;SDS011;13676;50.168;8.568;2023-02-28T04:33:10;5.85;;;3.42;;
25846;SDS011;13676;50.168;8.568;2023-02-28T04:35:36;6.80;;;3.70;;
25846;SDS011;13676;50.168;8.568;2023-02-28T04:38:01;6.80;;;3.95;;
25846;SDS011;13676;50.168;8.568;2023-02-28T04:40:27;6.00;;;3.80;;
25846;SDS011;13676;50.168;8.568;2023-02-28T04:42:52;4.95;;;3.25;;
25846;SDS011;13676;50.168;8.568;2023-02-28T04:45:17;6.70;;;3.85;;
25846;SDS011;13676;50.168;8.568;2023-02-28T04:47:43;7.55;;;3.75;;
25846;SDS011;13676;50.168;8.568;2023-02-28T04:50:08;7.07;;;3.85;;
25846;SDS011;13676;50.168;8.568;2023-02-28T04:52:34;5.50;;;3.83;;
25846;SDS011;13676;50.168;8.568;2023-02-28T04:54:59;6.13;;;3.97;;
25846;SDS011;13676;50.168;8.568;2023-02-28T04:57:25;5.18;;;3.65;;
25846;SDS011;13676;50.168;8.568;2023-02-28T04:59:50;8.02;;;3.97;;
25846;SDS011;13676;50.168;8.568;2023-02-28T05:02:15;5.68;;;3.45;;
25846;SDS011;13676;50.168;8.568;2023-02-28T05:04:41;7.13;;;3.70;;
25846;SDS011;13676;50.168;8.568;2023-02-28T05:07:06;5.32;;;3.00;;
25846;SDS011;13676;50.168;8.568;2023-02-28T05:09:31;6.35;;;3.67;;
25846;SDS011;13676;50.168;8.568;2023-02-28T05:11:58;9.30;;;3.53;;
25846;SDS011;13676;50.168;8.568;2023-02-28T05:14:23;7.25;;;3.30;;
25846;SDS011;13676;50.168;8.568;2023-02-28T05:16:48;9.38;;;3.60;;
25846;SDS011;13676;50.168;8.568;2023-02-28T05:19:14;4.95;;;3.22;;
25846;SDS011;13676;50.168;8.568;2023-02-28T05:21:40;5.40;;;3.10;;
25846;SDS011;13676;50.168;8.568;2023-02-28T05:24:10;5.63;;;3.00;;
25846;SDS011;13676;50.168;8.568;2023-02-28T05:26:37;5.00;;;3.08;;
25846;SDS011;13676;50.168;8.568;2023-02-28T05:29:03;5.00;;;3.13;;
25846;SDS011;13676;50.168;8.568;2023-02-28T05:31:29;5.25;;;3.28;;
25846;SDS011;13676;50.168;8.568;2023-02-28T05:33:54;5.47;;;3.22;;
25846;SDS011;13676;50.168;8.568;2023-02-28T05:36:20;7.63;;;3.72;;
25846;SDS011;13676;50.168;8.568;2023-02-28T05:38:46;4.47;;;2.88;;
25846;SDS011;13676;50.168;8.568;2023-02-28T05:41:12;8.00;;;3.40;;
25846;SDS011;13676;50.168;8.568;2023-02-28T05:43:38;6.00;;;2.90;;
25846;SDS011;13676;50.168;8.568;2023-02-28T05:46:06;6.88;;;3.22;;
25846;SDS011;13676;50.168;8.568;2023-02-28T05:48:34;5.38;;;3.45;;
25846;SDS011;13676;50.168;8.568;2023-02-28T05:51:00;5.03;;;3.58;;
25846;SDS011;13676;50.168;8.568;2023-02-28T05:53:27;3.67;;;2.67;;
25846;SDS011;13676;50.168;8.568;2023-02-28T05:55:54;4.57;;;3.03;;
25846;SDS011;13676;50.168;8.568;2023-02-28T05:58:20;6.85;;;3.42;;
25846;SDS011;13676;50.168;8.568;2023-02-28T06:00:45;4.53;;;2.95;;
25846;SDS011;13676;50.168;8.568;2023-02-28T06:03:11;5.32;;;3.20;;
25846;SDS011;13676;50.168;8.568;2023-02-28T06:05:36;8.95;;;3.05;;
25846;SDS011;13676;50.168;8.568;2023-02-28T06:08:03;4.90;;;3.55;;
25846;SDS011;13676;50.168;8.568;2023-02-28T06:10:29;7.78;;;3.83;;
25846;SDS011;13676;50.168;8.568;2023-02-28T06:12:54;8.25;;;3.80;;
25846;SDS011;13676;50.168;8.568;2023-02-28T06:15:19;6.60;;;3.78;;
25846;SDS011;13676;50.168;8.568;2023-02-28T06:17:45;7.57;;;4.00;;
25846;SDS011;13676;50.168;8.568;2023-02-28T06:20:12;9.32;;;3.85;;
25846;SDS011;13676;50.168;8.568;2023-02-28T06:22:40;5.57;;;3.55;;
25846;SDS011;13676;50.168;8.568;2023-02-28T06:25:06;11.05;;;3.60;;
25846;SDS011;13676;50.168;8.568;2023-02-28T06:27:32;7.40;;;3.92;;
25846;SDS011;13676;50.168;8.568;2023-02-28T06:29:58;6.18;;;3.72;;
25846;SDS011;13676;50.168;8.568;2023-02-28T06:32:24;5.15;;;3.72;;
25846;SDS011;13676;50.168;8.568;2023-02-28T06:34:49;8.80;;;4.00;;
25846;SDS011;13676;50.168;8.568;2023-02-28T06:37:17;16.08;;;4.82;;
25846;SDS011;13676;50.168;8.568;2023-02-28T06:39:43;10.07;;;4.45;;
25846;SDS011;13676;50.168;8.568;2023-02-28T06:42:08;6.40;;;3.72;;
25846;SDS011;13676;50.168;8.568;2023-02-28T06:44:33;7.80;;;4.25;;
25846;SDS011;13676;50.168;8.568;2023-02-28T06:47:03;6.55;;;3.65;;
25846;SDS011;13676;50.168;8.568;2023-02-28T06:49:30;5.43;;;3.55;;
25846;SDS011;13676;50.168;8.568;2023-02-28T06:51:55;5.68;;;3.70;;
25846;SDS011;13676;50.168;8.568;2023-02-28T06:54:21;7.47;;;4.18;;
25846;SDS011;13676;50.168;8.568;2023-02-28T06:56:46;8.52;;;4.32;;
25846;SDS011;13676;50.168;8.568;2023-02-28T06:59:12;10.23;;;4.15;;
25846;SDS011;13676;50.168;8.568;2023-02-28T07:01:37;7.03;;;4.00;;
25846;SDS011;13676;50.168;8.568;2023-02-28T07:04:04;6.95;;;4.43;;
25846;SDS011;13676;50.168;8.568;2023-02-28T07:06:30;8.52;;;4.85;;
25846;SDS011;13676;50.168;8.568;2023-02-28T07:08:56;6.78;;;4.32;;
25846;SDS011;13676;50.168;8.568;2023-02-28T07:11:22;7.47;;;4.70;;
25846;SDS011;13676;50.168;8.568;2023-02-28T07:13:50;5.70;;;4.30;;
25846;SDS011;13676;50.168;8.568;2023-02-28T07:16:16;7.78;;;4.75;;
25846;SDS011;13676;50.168;8.568;2023-02-28T07:18:42;8.40;;;4.38;;
25846;SDS011;13676;50.168;8.568;2023-02-28T07:21:08;10.93;;;5.20;;
25846;SDS011;13676;50.168;8.568;2023-02-28T07:23:34;9.77;;;4.88;;
25846;SDS011;13676;50.168;8.568;2023-02-28T07:26:00;11.55;;;5.03;;
25846;SDS011;13676;50.168;8.568;2023-02-28T07:28:25;8.23;;;5.18;;
25846;SDS011;13676;50.168;8.568;2023-02-28T07:30:51;13.95;;;5.00;;
25846;SDS011;13676;50.168;8.568;2023-02-28T07:33:17;12.57;;;5.88;;
25846;SDS011;13676;50.168;8.568;2023-02-28T07:35:43;8.75;;;5.25;;
25846;SDS011;13676;50.168;8.568;2023-02-28T07:38:08;7.30;;;5.15;;
25846;SDS011;13676;50.168;8.568;2023-02-28T07:40:34;10.00;;;5.88;;
25846;SDS011;13676;50.168;8.568;2023-02-28T07:43:00;11.90;;;5.70;;
25846;SDS011;13676;50.168;8.568;2023-02-28T07:45:26;10.68;;;5.32;;
25846;SDS011;13676;50.168;8.568;2023-02-28T07:47:53;9.07;;;5.43;;
25846;SDS011;13676;50.168;8.568;2023-02-28T07:50:19;11.00;;;5.43;;
25846;SDS011;13676;50.168;8.568;2023-02-28T07:52:44;9.48;;;5.32;;
25846;SDS011;13676;50.168;8.568;2023-02-28T07:55:10;7.90;;;4.82;;
25846;SDS011;13676;50.168;8.568;2023-02-28T07:57:35;6.22;;;4.72;;
25846;SDS011;13676;50.168;8.568;2023-02-28T08:00:01;8.13;;;5.05;;
25846;SDS011;13676;50.168;8.568;2023-02-28T08:02:30;6.68;;;4.80;;
25846;SDS011;13676;50.168;8.568;2023-02-28T08:04:55;8.48;;;4.50;;
25846;SDS011;13676;50.168;8.568;2023-02-28T08:07:21;8.52;;;4.80;;
25846;SDS011;13676;50.168;8.568;2023-02-28T08:09:47;8.10;;;4.80;;
25846;SDS011;13676;50.168;8.568;2023-02-28T08:12:13;8.75;;;5.07;;
25846;SDS011;13676;50.168;8.568;2023-02-28T08:14:38;9.38;;;4.75;;
25846;SDS011;13676;50.168;8.568;2023-02-28T08:17:04;6.60;;;4.40;;
25846;SDS011;13676;50.168;8.568;2023-02-28T08:19:30;9.18;;;5.10;;
25846;SDS011;13676;50.168;8.568;2023-02-28T08:21:56;14.57;;;4.97;;
25846;SDS011;13676;50.168;8.568;2023-02-28T08:24:22;7.10;;;4.35;;
25846;SDS011;13676;50.168;8.568;2023-02-28T08:26:47;6.32;;;4.75;;
25846;SDS011;13676;50.168;8.568;2023-02-28T08:29:13;5.68;;;4.30;;
25846;SDS011;13676;50.168;8.568;2023-02-28T08:31:38;7.00;;;4.80;;
25846;SDS011;13676;50.168;8.568;2023-02-28T08:34:07;10.88;;;4.85;;
25846;SDS011;13676;50.168;8.568;2023-02-28T08:36:33;7.68;;;4.68;;
25846;SDS011;13676;50.168;8.568;2023-02-28T08:38:59;6.40;;;4.32;;
25846;SDS011;13676;50.168;8.568;2023-02-28T08:41:25;5.75;;;4.18;;
25846;SDS011;13676;50.168;8.568;2023-02-28T08:43:51;7.63;;;4.82;;
25846;SDS011;13676;50.168;8.568;2023-02-28T08:46:16;6.13;;;4.30;;
25846;SDS011;13676;50.168;8.568;2023-02-28T08:48:41;11.38;;;5.00;;
25846;SDS011;13676;50.168;8.568;2023-02-28T08:51:08;11.30;;;4.60;;
25846;SDS011;13676;50.168;8.568;2023-02-28T08:53:39;7.13;;;4.30;;
25846;SDS011;13676;50.168;8.568;2023-02-28T08:56:06;14.85;;;4.35;;
25846;SDS011;13676;50.168;8.568;2023-02-28T08:58:34;6.60;;;3.67;;
25846;SDS011;13676;50.168;8.568;2023-02-28T09:01:06;5.00;;;3.42;;
25846;SDS011;13676;50.168;8.568;2023-02-28T09:03:35;5.95;;;3.33;;
25846;SDS011;13676;50.168;8.568;2023-02-28T09:06:00;7.57;;;4.00;;
25846;SDS011;13676;50.168;8.568;2023-02-28T09:08:27;5.88;;;3.65;;
25846;SDS011;13676;50.168;8.568;2023-02-28T09:10:54;5.30;;;3.40;;
25846;SDS011;13676;50.168;8.568;2023-02-28T09:13:21;7.13;;;3.95;;
25846;SDS011;13676;50.168;8.568;2023-02-28T09:15:47;5.80;;;3.67;;
25846;SDS011;13676;50.168;8.568;2023-02-28T09:18:12;7.78;;;3.97;;
25846;SDS011;13676;50.168;8.568;2023-02-28T09:20:38;6.32;;;3.97;;
25846;SDS011;13676;50.168;8.568;2023-02-28T09:23:04;4.93;;;3.37;;
25846;SDS011;13676;50.168;8.568;2023-02-28T09:25:30;6.43;;;3.38;;
25846;SDS011;13676;50.168;8.568;2023-02-28T09:27:56;5.68;;;3.90;;
25846;SDS011;13676;50.168;8.568;2023-02-28T09:30:21;6.85;;;3.92;;
25846;SDS011;13676;50.168;8.568;2023-02-28T09:32:46;6.88;;;3.80;;
25846;SDS011;13676;50.168;8.568;2023-02-28T09:35:17;6.32;;;3.85;;
25846;SDS011;13676;50.168;8.568;2023-02-28T09:37:43;7.75;;;3.70;;
25846;SDS011;13676;50.168;8.568;2023-02-28T09:40:09;7.30;;;4.05;;
25846;SDS011;13676;50.168;8.568;2023-02-28T09:42:35;4.70;;;3.63;;
25846;SDS011;13676;50.168;8.568;2023-02-28T09:45:02;6.20;;;3.88;;
25846;SDS011;13676;50.168;8.568;2023-02-28T09:47:43;6.43;;;3.95;;
25846;SDS011;13676;50.168;8.568;2023-02-28T09:52:41;10.95;;;4.03;;
25846;SDS011;13676;50.168;8.568;2023-02-28T09:55:19;7.00;;;3.78;;
25846;SDS011;13676;50.168;8.568;2023-02-28T09:57:47;6.50;;;4.22;;
25846;SDS011;13676;50.168;8.568;2023-02-28T10:05:51;6.50;;;4.05;;
25846;SDS011;13676;50.168;8.568;2023-02-28T10:08:23;6.72;;;4.32;;
25846;SDS011;13676;50.168;8.568;2023-02-28T10:10:57;7.28;;;4.30;;
25846;SDS011;13676;50.168;8.568;2023-02-28T10:14:30;7.60;;;4.35;;
25846;SDS011;13676;50.168;8.568;2023-02-28T10:19:00;6.57;;;4.40;;
25846;SDS011;13676;50.168;8.568;2023-02-28T10:24:02;8.05;;;4.55;;
25846;SDS011;13676;50.168;8.568;2023-02-28T10:27:09;7.10;;;4.38;;
25846;SDS011;13676;50.168;8.568;2023-02-28T10:29:39;9.02;;;4.53;;
25846;SDS011;13676;50.168;8.568;2023-02-28T10:32:05;11.32;;;4.90;;
25846;SDS011;13676;50.168;8.568;2023-02-28T10:34:31;8.52;;;4.55;;
25846;SDS011;13676;50.168;8.568;2023-02-28T10:36:56;5.00;;;4.05;;
25846;SDS011;13676;50.168;8.568;2023-02-28T10:44:46;6.10;;;4.30;;
25846;SDS011;13676;50.168;8.568;2023-02-28T10:47:16;16.90;;;5.03;;
25846;SDS011;13676;50.168;8.568;2023-02-28T10:49:49;8.27;;;3.97;;
25846;SDS011;13676;50.168;8.568;2023-02-28T10:52:32;5.50;;;4.35;;
25846;SDS011;13676;50.168;8.568;2023-02-28T10:55:16;8.30;;;4.60;;
25846;SDS011;13676;50.168;8.568;2023-02-28T10:57:46;8.13;;;4.47;;
25846;SDS011;13676;50.168;8.568;2023-02-28T11:00:14;8.27;;;4.43;;
25846;SDS011;13676;50.168;8.568;2023-02-28T11:02:44;9.60;;;4.57;;
25846;SDS011;13676;50.168;8.568;2023-02-28T11:05:24;7.15;;;4.97;;
25846;SDS011;13676;50.168;8.568;2023-02-28T11:07:54;5.93;;;4.13;;
25846;SDS011;13676;50.168;8.568;2023-02-28T11:10:21;6.75;;;4.38;;
25846;SDS011;13676;50.168;8.568;2023-02-28T11:12:53;6.57;;;4.35;;
25846;SDS011;13676;50.168;8.568;2023-02-28T11:15:26;7.65;;;4.40;;
25846;SDS011;13676;50.168;8.568;2023-02-28T11:18:08;6.60;;;4.68;;
25846;SDS011;13676;50.168;8.568;2023-02-28T11:21:01;8.90;;;5.13;;
25846;SDS011;13676;50.168;8.568;2023-02-28T11:23:28;7.97;;;4.90;;
25846;SDS011;13676;50.168;8.568;2023-02-28T11:25:57;9.35;;;4.72;;
25846;SDS011;13676;50.168;8.568;2023-02-28T11:28:26;7.28;;;5.03;;
25846;SDS011;13676;50.168;8.568;2023-02-28T11:31:33;7.25;;;5.18;;
25846;SDS011;13676;50.168;8.568;2023-02-28T11:33:54;8.05;;;4.57;;
25846;SDS011;13676;50.168;8.568;2023-02-28T11:36:24;7.05;;;5.00;;
25846;SDS011;13676;50.168;8.568;2023-02-28T11:38:56;10.15;;;4.85;;
25846;SDS011;13676;50.168;8.568;2023-02-28T11:55:27;6.00;;;4.20;;
25846;SDS011;13676;50.168;8.568;2023-02-28T11:58:07;11.50;;;5.45;;
25846;SDS011;13676;50.168;8.568;2023-02-28T12:06:34;5.70;;;4.38;;
25846;SDS011;13676;50.168;8.568;2023-02-28T12:11:55;7.53;;;4.95;;
25846;SDS011;13676;50.168;8.568;2023-02-28T12:28:10;7.80;;;5.28;;
25846;SDS011;13676;50.168;8.568;2023-02-28T12:30:38;7.25;;;4.90;;
25846;SDS011;13676;50.168;8.568;2023-02-28T12:33:12;7.38;;;5.53;;
25846;SDS011;13676;50.168;8.568;2023-02-28T12:38:18;6.82;;;4.93;;
25846;SDS011;13676;50.168;8.568;2023-02-28T12:40:56;8.63;;;5.43;;
25846;SDS011;13676;50.168;8.568;2023-02-28T12:43:30;13.35;;;5.65;;
25846;SDS011;13676;50.168;8.568;2023-02-28T12:45:59;7.30;;;4.78;;
25846;SDS011;13676;50.168;8.568;2023-02-28T12:48:31;9.20;;;4.80;;
25846;SDS011;13676;50.168;8.568;2023-02-28T12:51:01;9.07;;;4.90;;
25846;SDS011;13676;50.168;8.568;2023-02-28T13:05:07;8.95;;;5.35;;
25846;SDS011;13676;50.168;8.568;2023-02-28T13:10:37;8.80;;;5.35;;
25846;SDS011;13676;50.168;8.568;2023-02-28T13:13:17;13.50;;;5.53;;
25846;SDS011;13676;50.168;8.568;2023-02-28T13:15:58;6.20;;;4.65;;
25846;SDS011;13676;50.168;8.568;2023-02-28T13:18:35;8.30;;;5.70;;
25846;SDS011;13676;50.168;8.568;2023-02-28T13:21:09;9.07;;;5.97;;
25846;SDS011;13676;50.168;8.568;2023-02-28T13:26:02;10.63;;;5.43;;
25846;SDS011;13676;50.168;8.568;2023-02-28T13:31:18;8.93;;;4.78;;
25846;SDS011;13676;50.168;8.568;2023-02-28T13:38:48;8.82;;;5.40;;
25846;SDS011;13676;50.168;8.568;2023-02-28T13:46:36;9.32;;;5.35;;
25846;SDS011;13676;50.168;8.568;2023-02-28T13:51:48;9.30;;;6.03;;
25846;SDS011;13676;50.168;8.568;2023-02-28T13:54:18;6.18;;;4.80;;
25846;SDS011;13676;50.168;8.568;2023-02-28T13:57:02;6.85;;;4.90;;
25846;SDS011;13676;50.168;8.568;2023-02-28T13:59:37;9.05;;;5.13;;
25846;SDS011;13676;50.168;8.568;2023-02-28T14:05:13;9.48;;;5.40;;
25846;SDS011;13676;50.168;8.568;2023-02-28T14:07:47;9.65;;;7.10;;
25846;SDS011;13676;50.168;8.568;2023-02-28T14:13:58;8.30;;;5.45;;
25846;SDS011;13676;50.168;8.568;2023-02-28T14:16:09;10.48;;;6.63;;
25846;SDS011;13676;50.168;8.568;2023-02-28T14:18:37;8.50;;;4.82;;
25846;SDS011;13676;50.168;8.568;2023-02-28T14:21:25;9.32;;;5.55;;
25846;SDS011;13676;50.168;8.568;2023-02-28T14:37:55;10.45;;;5.78;;
25846;SDS011;13676;50.168;8.568;2023-02-28T14:40:22;12.45;;;6.70;;
25846;SDS011;13676;50.168;8.568;2023-02-28T14:42:54;9.77;;;6.53;;
25846;SDS011;13676;50.168;8.568;2023-02-28T14:45:24;7.18;;;5.13;;
25846;SDS011;13676;50.168;8.568;2023-02-28T14:50:18;8.07;;;4.78;;
25846;SDS011;13676;50.168;8.568;2023-02-28T14:52:53;7.38;;;4.85;;
25846;SDS011;13676;50.168;8.568;2023-02-28T14:55:20;10.85;;;5.90;;
25846;SDS011;13676;50.168;8.568;2023-02-28T14:57:51;9.00;;;6.40;;
25846;SDS011;13676;50.168;8.568;2023-02-28T15:00:25;7.18;;;5.65;;
25846;SDS011;13676;50.168;8.568;2023-02-28T15:02:52;9.30;;;5.95;;
25846;SDS011;13676;50.168;8.568;2023-02-28T15:05:32;8.38;;;5.50;;
25846;SDS011;13676;50.168;8.568;2023-02-28T15:08:03;7.97;;;5.03;;
25846;SDS011;13676;50.168;8.568;2023-02-28T15:10:29;5.30;;;4.38;;
25846;SDS011;13676;50.168;8.568;2023-02-28T15:12:58;5.93;;;4.40;;
25846;SDS011;13676;50.168;8.568;2023-02-28T15:15:26;7.25;;;5.13;;
25846;SDS011;13676;50.168;8.568;2023-02-28T15:17:54;10.13;;;5.57;;
25846;SDS011;13676;50.168;8.568;2023-02-28T15:20:22;7.88;;;5.43;;
25846;SDS011;13676;50.168;8.568;2023-02-28T15:22:49;11.48;;;5.53;;
25846;SDS011;13676;50.168;8.568;2023-02-28T15:25:17;7.10;;;5.15;;
25846;SDS011;13676;50.168;8.568;2023-02-28T15:27:46;11.38;;;4.88;;
25846;SDS011;13676;50.168;8.568;2023-02-28T15:30:15;9.55;;;5.70;;
25846;SDS011;13676;50.168;8.568;2023-02-28T15:32:43;9.02;;;5.53;;
25846;SDS011;13676;50.168;8.568;2023-02-28T15:38:02;6.70;;;4.65;;
25846;SDS011;13676;50.168;8.568;2023-02-28T15:40:40;8.30;;;5.65;;
25846;SDS011;13676;50.168;8.568;2023-02-28T15:43:14;9.23;;;6.28;;
25846;SDS011;13676;50.168;8.568;2023-02-28T15:50:57;10.77;;;6.10;;
25846;SDS011;13676;50.168;8.568;2023-02-28T15:53:28;8.85;;;5.70;;
25846;SDS011;13676;50.168;8.568;2023-02-28T15:56:04;8.90;;;5.38;;
25846;SDS011;13676;50.168;8.568;2023-02-28T15:58:32;10.18;;;5.88;;
25846;SDS011;13676;50.168;8.568;2023-02-28T16:01:05;8.68;;;5.38;;
25846;SDS011;13676;50.168;8.568;2023-02-28T16:03:37;9.27;;;5.85;;
25846;SDS011;13676;50.168;8.568;2023-02-28T16:08:49;10.75;;;6.40;;
25846;SDS011;13676;50.168;8.568;2023-02-28T16:11:16;10.95;;;6.32;;
25846;SDS011;13676;50.168;8.568;2023-02-28T16:13:42;8.75;;;5.55;;
25846;SDS011;13676;50.168;8.568;2023-02-28T16:16:07;7.95;;;5.03;;
25846;SDS011;13676;50.168;8.568;2023-02-28T16:18:32;9.55;;;5.40;;
25846;SDS011;13676;50.168;8.568;2023-02-28T16:20:58;9.10;;;5.50;;
25846;SDS011;13676;50.168;8.568;2023-02-28T16:23:23;8.75;;;6.10;;
25846;SDS011;13676;50.168;8.568;2023-02-28T16:25:49;8.93;;;5.90;;
25846;SDS011;13676;50.168;8.568;2023-02-28T16:28:23;8.18;;;5.63;;
25846;SDS011;13676;50.168;8.568;2023-02-28T16:30:53;9.93;;;6.03;;
25846;SDS011;13676;50.168;8.568;2023-02-28T16:33:18;8.50;;;5.63;;
25846;SDS011;13676;50.168;8.568;2023-02-28T16:35:44;11.70;;;6.45;;
25846;SDS011;13676;50.168;8.568;2023-02-28T16:38:09;10.95;;;6.10;;
25846;SDS011;13676;50.168;8.568;2023-02-28T16:40:35;9.00;;;5.55;;
25846;SDS011;13676;50.168;8.568;2023-02-28T16:43:03;8.55;;;5.10;;
25846;SDS011;13676;50.168;8.568;2023-02-28T16:45:30;8.27;;;5.53;;
25846;SDS011;13676;50.168;8.568;2023-02-28T16:47:55;17.02;;;6.38;;
25846;SDS011;13676;50.168;8.568;2023-02-28T16:50:24;12.63;;;6.28;;
25846;SDS011;13676;50.168;8.568;2023-02-28T16:52:51;9.73;;;6.72;;
25846;SDS011;13676;50.168;8.568;2023-02-28T16:55:20;10.43;;;6.07;;
25846;SDS011;13676;50.168;8.568;2023-02-28T16:57:56;12.40;;;6.55;;
25846;SDS011;13676;50.168;8.568;2023-02-28T17:00:23;10.70;;;6.00;;
25846;SDS011;13676;50.168;8.568;2023-02-28T17:02:49;10.23;;;5.72;;
25846;SDS011;13676;50.168;8.568;2023-02-28T17:05:14;12.30;;;6.70;;
25846;SDS011;13676;50.168;8.568;2023-02-28T17:07:41;10.02;;;5.60;;
25846;SDS011;13676;50.168;8.568;2023-02-28T17:10:15;10.63;;;5.88;;
25846;SDS011;13676;50.168;8.568;2023-02-28T17:12:49;9.65;;;5.43;;
25846;SDS011;13676;50.168;8.568;2023-02-28T17:15:15;11.98;;;6.35;;
25846;SDS011;13676;50.168;8.568;2023-02-28T17:17:42;13.43;;;7.80;;
25846;SDS011;13676;50.168;8.568;2023-02-28T17:20:12;13.20;;;7.50;;
25846;SDS011;13676;50.168;8.568;2023-02-28T17:22:39;14.48;;;7.20;;
25846;SDS011;13676;50.168;8.568;2023-02-28T17:25:05;16.65;;;7.68;;
25846;SDS011;13676;50.168;8.568;2023-02-28T17:27:30;14.63;;;7.80;;
25846;SDS011;13676;50.168;8.568;2023-02-28T17:29:56;12.57;;;6.97;;